LFCK/DCM METAR and TAF weather

Enter ICAO airport designator
Station Type Date Time Source
LFCK METAR 2020/09/28 09:30 UTC NOAA

LFCK 280930Z AUTO 28013KT 9999 OVC012 12/11 Q1019 TEMPO 4000 -RADZ BECMG BKN035


Station Type Date Time Source
LFCK Decoded METAR 2020/09/28 09:30 UTC NOAA

Station name not available
Sep 28, 2020 - 05:30 AM EDT / 2020.09.28 0930 UTC
Wind: from the W (280 degrees) at 15 MPH (13 KT):0
Visibility: greater than 7 mile(s):0
Sky conditions: overcast
Temperature: 53 F (12 C)
Dew Point: 51 F (11 C)
Relative Humidity: 93%
Pressure (altimeter): 30.09 in. Hg (1019 hPa)
ob: LFCK 280930Z AUTO 28013KT 9999 OVC012 12/11 Q1019 TEMPO 4000 -RADZ BECMG BKN035
cycle: 9

Station Type Date Time Source
LFCK TAF UTC NOAA

Error!

Example: see airport list